sensor_id;sensor_type;location;lat;lon;timestamp;P1;durP1;ratioP1;P2;durP2;ratioP2
77581;SDS011;66726;52.388;9.986;2024-02-21T00:00:51;29.13;;;14.67;;
77581;SDS011;66726;52.388;9.986;2024-02-21T00:03:20;23.57;;;13.53;;
77581;SDS011;66726;52.388;9.986;2024-02-21T00:05:48;27.93;;;15.17;;
77581;SDS011;66726;52.388;9.986;2024-02-21T00:08:17;30.43;;;15.50;;
77581;SDS011;66726;52.388;9.986;2024-02-21T00:10:47;25.17;;;15.13;;
77581;SDS011;66726;52.388;9.986;2024-02-21T00:13:16;26.27;;;16.20;;
77581;SDS011;66726;52.388;9.986;2024-02-21T00:15:44;26.27;;;16.17;;
77581;SDS011;66726;52.388;9.986;2024-02-21T00:18:13;26.37;;;17.23;;
77581;SDS011;66726;52.388;9.986;2024-02-21T00:20:41;30.97;;;16.53;;
77581;SDS011;66726;52.388;9.986;2024-02-21T00:23:10;28.70;;;16.07;;
77581;SDS011;66726;52.388;9.986;2024-02-21T00:25:39;29.80;;;17.03;;
77581;SDS011;66726;52.388;9.986;2024-02-21T00:28:08;32.47;;;17.03;;
77581;SDS011;66726;52.388;9.986;2024-02-21T00:30:37;36.10;;;17.67;;
77581;SDS011;66726;52.388;9.986;2024-02-21T00:33:06;32.53;;;17.63;;
77581;SDS011;66726;52.388;9.986;2024-02-21T00:35:35;28.60;;;17.87;;
77581;SDS011;66726;52.388;9.986;2024-02-21T00:38:03;30.33;;;17.67;;
77581;SDS011;66726;52.388;9.986;2024-02-21T00:40:32;30.00;;;18.00;;
77581;SDS011;66726;52.388;9.986;2024-02-21T00:43:01;34.23;;;18.60;;
77581;SDS011;66726;52.388;9.986;2024-02-21T00:45:31;26.00;;;16.43;;
77581;SDS011;66726;52.388;9.986;2024-02-21T00:48:00;28.53;;;18.60;;
77581;SDS011;66726;52.388;9.986;2024-02-21T00:50:29;35.50;;;18.43;;
77581;SDS011;66726;52.388;9.986;2024-02-21T00:52:58;30.10;;;17.33;;
77581;SDS011;66726;52.388;9.986;2024-02-21T00:55:26;31.33;;;17.80;;
77581;SDS011;66726;52.388;9.986;2024-02-21T00:57:55;29.80;;;18.30;;
77581;SDS011;66726;52.388;9.986;2024-02-21T01:00:23;29.20;;;18.17;;
77581;SDS011;66726;52.388;9.986;2024-02-21T01:02:53;34.87;;;18.70;;
77581;SDS011;66726;52.388;9.986;2024-02-21T01:05:22;35.80;;;18.23;;
77581;SDS011;66726;52.388;9.986;2024-02-21T01:07:50;34.90;;;18.27;;
77581;SDS011;66726;52.388;9.986;2024-02-21T01:10:19;36.87;;;18.80;;
77581;SDS011;66726;52.388;9.986;2024-02-21T01:12:47;35.27;;;17.93;;
77581;SDS011;66726;52.388;9.986;2024-02-21T01:15:16;27.77;;;17.63;;
77581;SDS011;66726;52.388;9.986;2024-02-21T01:17:44;30.27;;;20.03;;
77581;SDS011;66726;52.388;9.986;2024-02-21T01:20:14;33.47;;;18.80;;
77581;SDS011;66726;52.388;9.986;2024-02-21T01:22:43;36.97;;;20.20;;
77581;SDS011;66726;52.388;9.986;2024-02-21T01:25:12;30.80;;;18.93;;
77581;SDS011;66726;52.388;9.986;2024-02-21T01:27:40;36.00;;;18.77;;
77581;SDS011;66726;52.388;9.986;2024-02-21T01:30:09;35.63;;;19.17;;
77581;SDS011;66726;52.388;9.986;2024-02-21T01:32:38;28.17;;;18.40;;
77581;SDS011;66726;52.388;9.986;2024-02-21T01:35:08;32.00;;;18.07;;
77581;SDS011;66726;52.388;9.986;2024-02-21T01:37:38;28.43;;;18.13;;
77581;SDS011;66726;52.388;9.986;2024-02-21T01:40:07;28.23;;;17.93;;
77581;SDS011;66726;52.388;9.986;2024-02-21T01:42:37;33.10;;;18.63;;
77581;SDS011;66726;52.388;9.986;2024-02-21T01:45:07;30.83;;;18.70;;
77581;SDS011;66726;52.388;9.986;2024-02-21T01:47:36;28.20;;;17.10;;
77581;SDS011;66726;52.388;9.986;2024-02-21T01:50:06;28.27;;;17.20;;
77581;SDS011;66726;52.388;9.986;2024-02-21T01:52:35;32.57;;;17.40;;
77581;SDS011;66726;52.388;9.986;2024-02-21T01:55:05;30.20;;;18.30;;
77581;SDS011;66726;52.388;9.986;2024-02-21T01:57:35;31.00;;;17.90;;
77581;SDS011;66726;52.388;9.986;2024-02-21T02:00:04;31.13;;;18.47;;
77581;SDS011;66726;52.388;9.986;2024-02-21T02:02:34;34.53;;;18.07;;
77581;SDS011;66726;52.388;9.986;2024-02-21T02:05:03;25.73;;;17.80;;
77581;SDS011;66726;52.388;9.986;2024-02-21T02:07:33;36.33;;;19.07;;
77581;SDS011;66726;52.388;9.986;2024-02-21T02:10:03;33.57;;;17.67;;
77581;SDS011;66726;52.388;9.986;2024-02-21T02:12:32;30.30;;;17.47;;
77581;SDS011;66726;52.388;9.986;2024-02-21T02:15:01;29.43;;;17.67;;
77581;SDS011;66726;52.388;9.986;2024-02-21T02:17:31;32.20;;;17.63;;
77581;SDS011;66726;52.388;9.986;2024-02-21T02:20:00;30.30;;;17.30;;
77581;SDS011;66726;52.388;9.986;2024-02-21T02:22:28;29.57;;;17.80;;
77581;SDS011;66726;52.388;9.986;2024-02-21T02:25:00;26.93;;;16.67;;
77581;SDS011;66726;52.388;9.986;2024-02-21T02:27:30;32.23;;;17.23;;
77581;SDS011;66726;52.388;9.986;2024-02-21T02:29:58;32.80;;;18.43;;
77581;SDS011;66726;52.388;9.986;2024-02-21T02:32:27;30.20;;;19.03;;
77581;SDS011;66726;52.388;9.986;2024-02-21T02:34:56;26.93;;;17.13;;
77581;SDS011;66726;52.388;9.986;2024-02-21T02:37:24;31.43;;;18.30;;
77581;SDS011;66726;52.388;9.986;2024-02-21T02:39:53;30.70;;;17.70;;
77581;SDS011;66726;52.388;9.986;2024-02-21T02:42:23;27.27;;;17.50;;
77581;SDS011;66726;52.388;9.986;2024-02-21T02:44:51;29.80;;;18.67;;
77581;SDS011;66726;52.388;9.986;2024-02-21T02:47:19;26.57;;;18.20;;
77581;SDS011;66726;52.388;9.986;2024-02-21T02:49:48;32.37;;;19.00;;
77581;SDS011;66726;52.388;9.986;2024-02-21T02:52:17;34.53;;;18.37;;
77581;SDS011;66726;52.388;9.986;2024-02-21T02:54:46;32.43;;;18.60;;
77581;SDS011;66726;52.388;9.986;2024-02-21T02:57:18;34.67;;;18.80;;
77581;SDS011;66726;52.388;9.986;2024-02-21T02:59:48;30.27;;;18.10;;
77581;SDS011;66726;52.388;9.986;2024-02-21T03:02:17;26.97;;;18.67;;
77581;SDS011;66726;52.388;9.986;2024-02-21T03:04:46;28.63;;;18.17;;
77581;SDS011;66726;52.388;9.986;2024-02-21T03:07:14;30.27;;;17.83;;
77581;SDS011;66726;52.388;9.986;2024-02-21T03:09:43;27.27;;;17.63;;
77581;SDS011;66726;52.388;9.986;2024-02-21T03:12:11;25.43;;;16.90;;
77581;SDS011;66726;52.388;9.986;2024-02-21T03:14:45;28.20;;;19.10;;
77581;SDS011;66726;52.388;9.986;2024-02-21T03:17:15;29.23;;;18.13;;
77581;SDS011;66726;52.388;9.986;2024-02-21T03:19:43;27.67;;;17.60;;
77581;SDS011;66726;52.388;9.986;2024-02-21T03:22:12;27.60;;;16.83;;
77581;SDS011;66726;52.388;9.986;2024-02-21T03:24:40;26.83;;;17.57;;
77581;SDS011;66726;52.388;9.986;2024-02-21T03:27:09;31.00;;;17.73;;
77581;SDS011;66726;52.388;9.986;2024-02-21T03:29:37;24.40;;;17.87;;
77581;SDS011;66726;52.388;9.986;2024-02-21T03:32:06;27.27;;;17.60;;
77581;SDS011;66726;52.388;9.986;2024-02-21T03:34:36;24.67;;;17.47;;
77581;SDS011;66726;52.388;9.986;2024-02-21T03:37:04;25.63;;;16.57;;
77581;SDS011;66726;52.388;9.986;2024-02-21T03:39:33;29.50;;;16.83;;
77581;SDS011;66726;52.388;9.986;2024-02-21T03:42:03;24.10;;;17.40;;
77581;SDS011;66726;52.388;9.986;2024-02-21T03:44:33;29.03;;;16.63;;
77581;SDS011;66726;52.388;9.986;2024-02-21T03:47:01;26.97;;;17.87;;
77581;SDS011;66726;52.388;9.986;2024-02-21T03:49:30;28.73;;;17.13;;
77581;SDS011;66726;52.388;9.986;2024-02-21T03:52:00;25.20;;;16.97;;
77581;SDS011;66726;52.388;9.986;2024-02-21T03:54:29;25.17;;;16.67;;
77581;SDS011;66726;52.388;9.986;2024-02-21T03:56:57;31.87;;;18.17;;
77581;SDS011;66726;52.388;9.986;2024-02-21T03:59:26;26.53;;;17.33;;
77581;SDS011;66726;52.388;9.986;2024-02-21T04:01:54;29.07;;;18.67;;
77581;SDS011;66726;52.388;9.986;2024-02-21T04:04:23;34.20;;;17.60;;
77581;SDS011;66726;52.388;9.986;2024-02-21T04:06:51;29.33;;;19.00;;
77581;SDS011;66726;52.388;9.986;2024-02-21T04:09:21;28.27;;;17.77;;
77581;SDS011;66726;52.388;9.986;2024-02-21T04:11:50;29.43;;;18.17;;
77581;SDS011;66726;52.388;9.986;2024-02-21T04:14:18;28.30;;;17.60;;
77581;SDS011;66726;52.388;9.986;2024-02-21T04:16:47;30.60;;;17.93;;
77581;SDS011;66726;52.388;9.986;2024-02-21T04:19:15;31.53;;;18.43;;
77581;SDS011;66726;52.388;9.986;2024-02-21T04:21:44;31.70;;;18.90;;
77581;SDS011;66726;52.388;9.986;2024-02-21T04:24:13;26.50;;;17.70;;
77581;SDS011;66726;52.388;9.986;2024-02-21T04:26:42;28.37;;;17.50;;
77581;SDS011;66726;52.388;9.986;2024-02-21T04:29:11;25.40;;;16.73;;
77581;SDS011;66726;52.388;9.986;2024-02-21T04:31:40;31.97;;;18.03;;
77581;SDS011;66726;52.388;9.986;2024-02-21T04:34:08;27.73;;;17.83;;
77581;SDS011;66726;52.388;9.986;2024-02-21T04:36:37;31.27;;;18.23;;
77581;SDS011;66726;52.388;9.986;2024-02-21T04:39:05;28.17;;;17.33;;
77581;SDS011;66726;52.388;9.986;2024-02-21T04:41:34;28.73;;;18.17;;
77581;SDS011;66726;52.388;9.986;2024-02-21T04:44:04;33.67;;;17.53;;
77581;SDS011;66726;52.388;9.986;2024-02-21T04:46:32;29.70;;;17.90;;
77581;SDS011;66726;52.388;9.986;2024-02-21T04:49:01;28.97;;;17.57;;
77581;SDS011;66726;52.388;9.986;2024-02-21T04:51:30;28.73;;;18.93;;
77581;SDS011;66726;52.388;9.986;2024-02-21T04:54:00;29.00;;;18.97;;
77581;SDS011;66726;52.388;9.986;2024-02-21T04:56:30;29.00;;;18.13;;
77581;SDS011;66726;52.388;9.986;2024-02-21T04:58:58;32.13;;;18.60;;
77581;SDS011;66726;52.388;9.986;2024-02-21T05:01:29;30.50;;;18.43;;
77581;SDS011;66726;52.388;9.986;2024-02-21T05:03:57;28.10;;;17.77;;
77581;SDS011;66726;52.388;9.986;2024-02-21T05:06:26;27.03;;;18.07;;
77581;SDS011;66726;52.388;9.986;2024-02-21T05:08:54;29.30;;;18.20;;
77581;SDS011;66726;52.388;9.986;2024-02-21T05:11:24;28.00;;;18.23;;
77581;SDS011;66726;52.388;9.986;2024-02-21T05:13:52;31.30;;;18.97;;
77581;SDS011;66726;52.388;9.986;2024-02-21T05:16:21;35.13;;;19.77;;
77581;SDS011;66726;52.388;9.986;2024-02-21T05:18:51;33.50;;;19.10;;
77581;SDS011;66726;52.388;9.986;2024-02-21T05:21:20;30.73;;;18.87;;
77581;SDS011;66726;52.388;9.986;2024-02-21T05:23:49;32.70;;;18.87;;
77581;SDS011;66726;52.388;9.986;2024-02-21T05:26:21;33.17;;;20.20;;
77581;SDS011;66726;52.388;9.986;2024-02-21T05:28:50;29.77;;;19.60;;
77581;SDS011;66726;52.388;9.986;2024-02-21T05:31:19;32.33;;;18.97;;
77581;SDS011;66726;52.388;9.986;2024-02-21T05:33:48;29.07;;;18.73;;
77581;SDS011;66726;52.388;9.986;2024-02-21T05:36:18;29.10;;;20.53;;
77581;SDS011;66726;52.388;9.986;2024-02-21T05:38:46;29.43;;;18.30;;
77581;SDS011;66726;52.388;9.986;2024-02-21T05:41:15;29.73;;;18.87;;
77581;SDS011;66726;52.388;9.986;2024-02-21T05:43:43;30.30;;;19.53;;
77581;SDS011;66726;52.388;9.986;2024-02-21T05:46:12;31.00;;;19.43;;
77581;SDS011;66726;52.388;9.986;2024-02-21T05:48:40;31.30;;;20.13;;
77581;SDS011;66726;52.388;9.986;2024-02-21T05:51:09;29.30;;;19.00;;
77581;SDS011;66726;52.388;9.986;2024-02-21T05:53:40;31.07;;;19.30;;
77581;SDS011;66726;52.388;9.986;2024-02-21T05:56:09;26.47;;;19.03;;
77581;SDS011;66726;52.388;9.986;2024-02-21T05:58:38;26.07;;;18.63;;
77581;SDS011;66726;52.388;9.986;2024-02-21T06:01:07;30.17;;;18.73;;
77581;SDS011;66726;52.388;9.986;2024-02-21T06:03:36;25.70;;;17.67;;
77581;SDS011;66726;52.388;9.986;2024-02-21T06:06:05;27.50;;;18.50;;
77581;SDS011;66726;52.388;9.986;2024-02-21T06:08:33;26.00;;;17.33;;
77581;SDS011;66726;52.388;9.986;2024-02-21T06:11:03;27.67;;;18.57;;
77581;SDS011;66726;52.388;9.986;2024-02-21T06:13:32;29.93;;;19.13;;
77581;SDS011;66726;52.388;9.986;2024-02-21T06:16:01;30.03;;;19.23;;
77581;SDS011;66726;52.388;9.986;2024-02-21T06:21:28;30.30;;;19.77;;
77581;SDS011;66726;52.388;9.986;2024-02-21T06:23:57;28.23;;;18.67;;
77581;SDS011;66726;52.388;9.986;2024-02-21T06:26:27;27.23;;;18.80;;
77581;SDS011;66726;52.388;9.986;2024-02-21T06:28:55;28.87;;;19.07;;
77581;SDS011;66726;52.388;9.986;2024-02-21T06:31:26;28.73;;;19.97;;
77581;SDS011;66726;52.388;9.986;2024-02-21T06:33:55;29.23;;;18.73;;
77581;SDS011;66726;52.388;9.986;2024-02-21T06:36:24;28.87;;;19.57;;
77581;SDS011;66726;52.388;9.986;2024-02-21T06:38:52;30.53;;;18.90;;
77581;SDS011;66726;52.388;9.986;2024-02-21T06:41:21;32.67;;;18.70;;
77581;SDS011;66726;52.388;9.986;2024-02-21T06:43:51;23.07;;;17.47;;
77581;SDS011;66726;52.388;9.986;2024-02-21T06:46:22;26.57;;;16.97;;
77581;SDS011;66726;52.388;9.986;2024-02-21T06:48:52;29.73;;;18.73;;
77581;SDS011;66726;52.388;9.986;2024-02-21T06:51:22;27.67;;;17.77;;
77581;SDS011;66726;52.388;9.986;2024-02-21T06:53:51;30.40;;;17.83;;
77581;SDS011;66726;52.388;9.986;2024-02-21T06:56:20;24.73;;;17.33;;
77581;SDS011;66726;52.388;9.986;2024-02-21T06:58:54;24.10;;;17.30;;
77581;SDS011;66726;52.388;9.986;2024-02-21T07:01:23;23.67;;;17.30;;
77581;SDS011;66726;52.388;9.986;2024-02-21T07:03:52;27.57;;;18.77;;
77581;SDS011;66726;52.388;9.986;2024-02-21T07:06:20;23.97;;;17.57;;
77581;SDS011;66726;52.388;9.986;2024-02-21T07:08:49;24.10;;;17.87;;
77581;SDS011;66726;52.388;9.986;2024-02-21T07:11:17;24.43;;;17.50;;
77581;SDS011;66726;52.388;9.986;2024-02-21T07:13:46;29.90;;;19.07;;
77581;SDS011;66726;52.388;9.986;2024-02-21T07:16:16;24.87;;;18.13;;
77581;SDS011;66726;52.388;9.986;2024-02-21T07:18:45;28.00;;;18.60;;
77581;SDS011;66726;52.388;9.986;2024-02-21T07:21:13;26.60;;;18.00;;
77581;SDS011;66726;52.388;9.986;2024-02-21T07:23:42;24.53;;;17.57;;
77581;SDS011;66726;52.388;9.986;2024-02-21T07:26:10;27.93;;;17.33;;
77581;SDS011;66726;52.388;9.986;2024-02-21T07:28:39;26.30;;;17.20;;
77581;SDS011;66726;52.388;9.986;2024-02-21T07:31:08;30.43;;;18.07;;
77581;SDS011;66726;52.388;9.986;2024-02-21T07:33:37;26.07;;;16.97;;
77581;SDS011;66726;52.388;9.986;2024-02-21T07:36:06;27.40;;;16.90;;
77581;SDS011;66726;52.388;9.986;2024-02-21T07:38:35;25.57;;;17.20;;
77581;SDS011;66726;52.388;9.986;2024-02-21T07:41:04;29.60;;;17.90;;
77581;SDS011;66726;52.388;9.986;2024-02-21T07:43:32;26.23;;;16.97;;
77581;SDS011;66726;52.388;9.986;2024-02-21T07:46:01;29.20;;;17.20;;
77581;SDS011;66726;52.388;9.986;2024-02-21T07:48:29;25.63;;;16.23;;
77581;SDS011;66726;52.388;9.986;2024-02-21T07:51:02;25.17;;;16.40;;
77581;SDS011;66726;52.388;9.986;2024-02-21T07:53:31;25.13;;;15.53;;
77581;SDS011;66726;52.388;9.986;2024-02-21T07:55:59;22.67;;;15.07;;
77581;SDS011;66726;52.388;9.986;2024-02-21T07:58:28;26.10;;;15.77;;
77581;SDS011;66726;52.388;9.986;2024-02-21T08:00:57;22.37;;;15.43;;
77581;SDS011;66726;52.388;9.986;2024-02-21T08:03:26;20.73;;;15.53;;
77581;SDS011;66726;52.388;9.986;2024-02-21T08:05:55;22.23;;;15.27;;
77581;SDS011;66726;52.388;9.986;2024-02-21T08:08:25;22.90;;;14.50;;
77581;SDS011;66726;52.388;9.986;2024-02-21T08:10:54;24.47;;;15.17;;
77581;SDS011;66726;52.388;9.986;2024-02-21T08:13:22;23.47;;;15.77;;
77581;SDS011;66726;52.388;9.986;2024-02-21T08:15:51;22.00;;;14.77;;
77581;SDS011;66726;52.388;9.986;2024-02-21T08:18:20;23.63;;;15.07;;
77581;SDS011;66726;52.388;9.986;2024-02-21T08:20:48;21.70;;;14.90;;
77581;SDS011;66726;52.388;9.986;2024-02-21T08:23:18;21.37;;;13.73;;
77581;SDS011;66726;52.388;9.986;2024-02-21T08:25:48;28.33;;;15.23;;
77581;SDS011;66726;52.388;9.986;2024-02-21T08:28:17;22.40;;;13.63;;
77581;SDS011;66726;52.388;9.986;2024-02-21T08:30:46;25.17;;;13.97;;
77581;SDS011;66726;52.388;9.986;2024-02-21T08:33:14;21.83;;;13.87;;
77581;SDS011;66726;52.388;9.986;2024-02-21T08:35:44;21.77;;;14.27;;
77581;SDS011;66726;52.388;9.986;2024-02-21T08:38:12;26.03;;;14.20;;
77581;SDS011;66726;52.388;9.986;2024-02-21T08:40:41;20.60;;;13.43;;
77581;SDS011;66726;52.388;9.986;2024-02-21T08:43:11;23.07;;;13.97;;
77581;SDS011;66726;52.388;9.986;2024-02-21T08:45:39;22.90;;;14.23;;
77581;SDS011;66726;52.388;9.986;2024-02-21T08:48:08;20.90;;;13.27;;
77581;SDS011;66726;52.388;9.986;2024-02-21T08:50:36;22.83;;;14.23;;
77581;SDS011;66726;52.388;9.986;2024-02-21T08:53:05;22.20;;;13.10;;
77581;SDS011;66726;52.388;9.986;2024-02-21T08:55:36;17.83;;;13.63;;
77581;SDS011;66726;52.388;9.986;2024-02-21T08:58:05;22.40;;;13.57;;
77581;SDS011;66726;52.388;9.986;2024-02-21T09:00:35;21.20;;;12.50;;
77581;SDS011;66726;52.388;9.986;2024-02-21T09:03:03;18.77;;;12.43;;
77581;SDS011;66726;52.388;9.986;2024-02-21T09:05:32;17.97;;;11.63;;
77581;SDS011;66726;52.388;9.986;2024-02-21T09:08:01;20.03;;;12.07;;
77581;SDS011;66726;52.388;9.986;2024-02-21T09:10:31;16.80;;;11.37;;
77581;SDS011;66726;52.388;9.986;2024-02-21T09:12:59;18.40;;;11.60;;
77581;SDS011;66726;52.388;9.986;2024-02-21T09:15:30;19.47;;;11.83;;
77581;SDS011;66726;52.388;9.986;2024-02-21T09:18:01;18.60;;;10.63;;
77581;SDS011;66726;52.388;9.986;2024-02-21T09:20:30;17.43;;;10.47;;
77581;SDS011;66726;52.388;9.986;2024-02-21T09:22:59;19.77;;;9.87;;
77581;SDS011;66726;52.388;9.986;2024-02-21T09:25:27;18.23;;;9.97;;
77581;SDS011;66726;52.388;9.986;2024-02-21T09:27:58;15.13;;;9.73;;
77581;SDS011;66726;52.388;9.986;2024-02-21T09:30:28;21.60;;;11.20;;
77581;SDS011;66726;52.388;9.986;2024-02-21T09:32:57;14.70;;;8.40;;
77581;SDS011;66726;52.388;9.986;2024-02-21T09:35:28;16.70;;;9.27;;
77581;SDS011;66726;52.388;9.986;2024-02-21T09:37:59;14.20;;;8.97;;
77581;SDS011;66726;52.388;9.986;2024-02-21T09:40:29;18.17;;;9.60;;
77581;SDS011;66726;52.388;9.986;2024-02-21T09:43:01;20.93;;;9.60;;
77581;SDS011;66726;52.388;9.986;2024-02-21T09:45:33;15.03;;;8.93;;
77581;SDS011;66726;52.388;9.986;2024-02-21T09:51:02;18.10;;;8.93;;
77581;SDS011;66726;52.388;9.986;2024-02-21T09:53:33;12.70;;;7.77;;
77581;SDS011;66726;52.388;9.986;2024-02-21T09:56:05;13.20;;;8.43;;
77581;SDS011;66726;52.388;9.986;2024-02-21T09:58:40;11.23;;;8.07;;
77581;SDS011;66726;52.388;9.986;2024-02-21T10:01:09;14.97;;;8.17;;
77581;SDS011;66726;52.388;9.986;2024-02-21T10:03:55;349.50;;;41.30;;
77581;SDS011;66726;52.388;9.986;2024-02-21T10:06:25;77.17;;;15.47;;
77581;SDS011;66726;52.388;9.986;2024-02-21T10:08:54;23.70;;;8.73;;
77581;SDS011;66726;52.388;9.986;2024-02-21T10:11:23;62.37;;;13.30;;
77581;SDS011;66726;52.388;9.986;2024-02-21T10:14:02;17.03;;;7.83;;
77581;SDS011;66726;52.388;9.986;2024-02-21T10:16:31;11.67;;;7.00;;
77581;SDS011;66726;52.388;9.986;2024-02-21T10:19:01;17.63;;;7.37;;
77581;SDS011;66726;52.388;9.986;2024-02-21T10:21:31;16.17;;;7.90;;
77581;SDS011;66726;52.388;9.986;2024-02-21T10:24:00;11.67;;;7.53;;
77581;SDS011;66726;52.388;9.986;2024-02-21T10:26:29;11.03;;;6.63;;
77581;SDS011;66726;52.388;9.986;2024-02-21T10:28:57;14.73;;;7.20;;
77581;SDS011;66726;52.388;9.986;2024-02-21T10:31:28;13.60;;;6.67;;
77581;SDS011;66726;52.388;9.986;2024-02-21T10:33:57;12.43;;;6.83;;
77581;SDS011;66726;52.388;9.986;2024-02-21T10:36:29;12.97;;;6.97;;
77581;SDS011;66726;52.388;9.986;2024-02-21T10:39:00;14.23;;;6.33;;
77581;SDS011;66726;52.388;9.986;2024-02-21T10:41:29;14.50;;;6.97;;
77581;SDS011;66726;52.388;9.986;2024-02-21T10:43:59;23.90;;;9.27;;
77581;SDS011;66726;52.388;9.986;2024-02-21T10:46:32;18.30;;;7.40;;
77581;SDS011;66726;52.388;9.986;2024-02-21T10:49:04;12.93;;;6.47;;
77581;SDS011;66726;52.388;9.986;2024-02-21T10:51:40;13.37;;;7.03;;
77581;SDS011;66726;52.388;9.986;2024-02-21T10:54:14;10.00;;;6.00;;
77581;SDS011;66726;52.388;9.986;2024-02-21T10:56:52;12.33;;;6.17;;
77581;SDS011;66726;52.388;9.986;2024-02-21T10:59:24;20.43;;;5.83;;
77581;SDS011;66726;52.388;9.986;2024-02-21T11:01:55;12.67;;;5.83;;
77581;SDS011;66726;52.388;9.986;2024-02-21T11:04:25;9.47;;;4.90;;
77581;SDS011;66726;52.388;9.986;2024-02-21T11:06:56;7.43;;;5.50;;
77581;SDS011;66726;52.388;9.986;2024-02-21T11:09:31;10.00;;;5.53;;
77581;SDS011;66726;52.388;9.986;2024-02-21T11:12:02;12.67;;;5.67;;
77581;SDS011;66726;52.388;9.986;2024-02-21T11:14:32;9.93;;;4.37;;
77581;SDS011;66726;52.388;9.986;2024-02-21T11:17:01;9.77;;;4.47;;
77581;SDS011;66726;52.388;9.986;2024-02-21T11:19:41;7.23;;;3.77;;
77581;SDS011;66726;52.388;9.986;2024-02-21T11:22:15;17.83;;;4.60;;
77581;SDS011;66726;52.388;9.986;2024-02-21T11:24:45;7.73;;;3.60;;
77581;SDS011;66726;52.388;9.986;2024-02-21T11:27:14;7.80;;;3.83;;
77581;SDS011;66726;52.388;9.986;2024-02-21T11:29:44;12.03;;;3.40;;
77581;SDS011;66726;52.388;9.986;2024-02-21T11:32:14;9.73;;;4.10;;
77581;SDS011;66726;52.388;9.986;2024-02-21T11:34:53;12.10;;;4.03;;
77581;SDS011;66726;52.388;9.986;2024-02-21T11:37:25;6.20;;;3.07;;
77581;SDS011;66726;52.388;9.986;2024-02-21T11:39:54;10.13;;;3.87;;
77581;SDS011;66726;52.388;9.986;2024-02-21T11:42:24;10.13;;;3.27;;
77581;SDS011;66726;52.388;9.986;2024-02-21T11:44:53;7.07;;;3.17;;
77581;SDS011;66726;52.388;9.986;2024-02-21T11:47:23;5.50;;;3.07;;
77581;SDS011;66726;52.388;9.986;2024-02-21T11:49:53;8.33;;;3.00;;
77581;SDS011;66726;52.388;9.986;2024-02-21T11:52:24;7.57;;;3.10;;
77581;SDS011;66726;52.388;9.986;2024-02-21T11:54:55;6.73;;;3.23;;
77581;SDS011;66726;52.388;9.986;2024-02-21T11:57:31;7.77;;;3.60;;
77581;SDS011;66726;52.388;9.986;2024-02-21T12:00:10;5.70;;;3.20;;
77581;SDS011;66726;52.388;9.986;2024-02-21T12:02:40;5.73;;;2.90;;
77581;SDS011;66726;52.388;9.986;2024-02-21T12:05:09;6.07;;;3.57;;
77581;SDS011;66726;52.388;9.986;2024-02-21T12:07:39;8.93;;;3.03;;
77581;SDS011;66726;52.388;9.986;2024-02-21T12:10:08;9.27;;;3.30;;
77581;SDS011;66726;52.388;9.986;2024-02-21T12:12:38;5.83;;;3.30;;
77581;SDS011;66726;52.388;9.986;2024-02-21T12:15:07;8.13;;;3.10;;
77581;SDS011;66726;52.388;9.986;2024-02-21T12:17:36;4.83;;;3.23;;
77581;SDS011;66726;52.388;9.986;2024-02-21T12:20:07;7.10;;;3.43;;
77581;SDS011;66726;52.388;9.986;2024-02-21T12:22:39;7.50;;;3.40;;
77581;SDS011;66726;52.388;9.986;2024-02-21T12:25:15;5.33;;;3.50;;
77581;SDS011;66726;52.388;9.986;2024-02-21T12:27:45;4.87;;;3.00;;
77581;SDS011;66726;52.388;9.986;2024-02-21T12:30:15;6.23;;;3.50;;
77581;SDS011;66726;52.388;9.986;2024-02-21T12:32:44;10.93;;;4.10;;
77581;SDS011;66726;52.388;9.986;2024-02-21T12:35:12;9.23;;;4.50;;
77581;SDS011;66726;52.388;9.986;2024-02-21T12:37:43;12.10;;;4.50;;
77581;SDS011;66726;52.388;9.986;2024-02-21T12:40:11;8.93;;;4.20;;
77581;SDS011;66726;52.388;9.986;2024-02-21T12:42:41;8.60;;;4.43;;
77581;SDS011;66726;52.388;9.986;2024-02-21T12:45:11;6.83;;;4.33;;
77581;SDS011;66726;52.388;9.986;2024-02-21T12:47:42;7.00;;;3.97;;
77581;SDS011;66726;52.388;9.986;2024-02-21T12:50:10;8.67;;;4.47;;
77581;SDS011;66726;52.388;9.986;2024-02-21T12:52:41;8.70;;;4.90;;
77581;SDS011;66726;52.388;9.986;2024-02-21T12:55:11;9.27;;;4.87;;
77581;SDS011;66726;52.388;9.986;2024-02-21T12:57:40;6.87;;;4.47;;
77581;SDS011;66726;52.388;9.986;2024-02-21T13:00:08;9.93;;;5.40;;
77581;SDS011;66726;52.388;9.986;2024-02-21T13:02:38;8.50;;;5.00;;
77581;SDS011;66726;52.388;9.986;2024-02-21T13:05:07;7.33;;;4.97;;
77581;SDS011;66726;52.388;9.986;2024-02-21T13:07:36;10.37;;;5.97;;
77581;SDS011;66726;52.388;9.986;2024-02-21T13:10:07;8.07;;;4.97;;
77581;SDS011;66726;52.388;9.986;2024-02-21T13:12:35;9.33;;;5.13;;
77581;SDS011;66726;52.388;9.986;2024-02-21T13:15:04;10.33;;;5.53;;
77581;SDS011;66726;52.388;9.986;2024-02-21T13:17:36;9.43;;;6.10;;
77581;SDS011;66726;52.388;9.986;2024-02-21T13:20:05;11.97;;;7.37;;
77581;SDS011;66726;52.388;9.986;2024-02-21T13:22:34;10.00;;;7.37;;
77581;SDS011;66726;52.388;9.986;2024-02-21T13:25:03;12.07;;;7.43;;
77581;SDS011;66726;52.388;9.986;2024-02-21T13:27:34;11.53;;;7.13;;
77581;SDS011;66726;52.388;9.986;2024-02-21T13:30:03;10.93;;;7.77;;
77581;SDS011;66726;52.388;9.986;2024-02-21T13:32:35;12.03;;;7.80;;
77581;SDS011;66726;52.388;9.986;2024-02-21T13:35:03;702.57;;;78.57;;
77581;SDS011;66726;52.388;9.986;2024-02-21T13:37:32;256.23;;;32.10;;
77581;SDS011;66726;52.388;9.986;2024-02-21T13:40:03;36.90;;;10.70;;
77581;SDS011;66726;52.388;9.986;2024-02-21T13:42:36;157.73;;;22.43;;
77581;SDS011;66726;52.388;9.986;2024-02-21T13:45:05;18.37;;;8.90;;
77581;SDS011;66726;52.388;9.986;2024-02-21T13:47:34;12.27;;;8.57;;
77581;SDS011;66726;52.388;9.986;2024-02-21T13:50:05;11.20;;;7.90;;
77581;SDS011;66726;52.388;9.986;2024-02-21T13:52:37;16.07;;;8.77;;
77581;SDS011;66726;52.388;9.986;2024-02-21T13:55:05;16.00;;;7.90;;
77581;SDS011;66726;52.388;9.986;2024-02-21T13:57:34;11.20;;;6.83;;
77581;SDS011;66726;52.388;9.986;2024-02-21T14:00:04;11.93;;;7.03;;
77581;SDS011;66726;52.388;9.986;2024-02-21T14:02:37;12.60;;;7.13;;
77581;SDS011;66726;52.388;9.986;2024-02-21T14:05:06;11.23;;;6.40;;
77581;SDS011;66726;52.388;9.986;2024-02-21T14:07:35;12.20;;;7.07;;
77581;SDS011;66726;52.388;9.986;2024-02-21T14:10:05;12.20;;;6.87;;
77581;SDS011;66726;52.388;9.986;2024-02-21T14:12:37;10.70;;;6.43;;
77581;SDS011;66726;52.388;9.986;2024-02-21T14:15:06;11.03;;;5.97;;
77581;SDS011;66726;52.388;9.986;2024-02-21T14:17:35;9.53;;;5.43;;
77581;SDS011;66726;52.388;9.986;2024-02-21T14:20:06;8.73;;;4.90;;
77581;SDS011;66726;52.388;9.986;2024-02-21T14:22:35;6.73;;;3.83;;
77581;SDS011;66726;52.388;9.986;2024-02-21T14:25:04;9.33;;;4.93;;
77581;SDS011;66726;52.388;9.986;2024-02-21T14:27:33;8.87;;;4.03;;
77581;SDS011;66726;52.388;9.986;2024-02-21T14:30:04;7.27;;;3.90;;
77581;SDS011;66726;52.388;9.986;2024-02-21T14:32:37;6.90;;;3.97;;
77581;SDS011;66726;52.388;9.986;2024-02-21T14:35:08;8.37;;;3.73;;
77581;SDS011;66726;52.388;9.986;2024-02-21T14:37:37;9.47;;;3.93;;
77581;SDS011;66726;52.388;9.986;2024-02-21T14:40:06;7.83;;;3.67;;
77581;SDS011;66726;52.388;9.986;2024-02-21T14:42:35;10.53;;;5.00;;
77581;SDS011;66726;52.388;9.986;2024-02-21T14:45:06;7.97;;;4.10;;
77581;SDS011;66726;52.388;9.986;2024-02-21T14:47:35;8.90;;;3.90;;